createdAt,value
2022-08-16T00:01:34.223Z,25.26
2022-08-16T00:04:12.642Z,25.18
2022-08-16T00:06:44.633Z,25.15
2022-08-16T00:09:17.073Z,25.11
2022-08-16T00:11:52.803Z,25.11
2022-08-16T00:14:31.098Z,25.13
2022-08-16T00:17:18.621Z,25.12
2022-08-16T00:19:53.789Z,25.11
2022-08-16T00:22:27.854Z,25.10
2022-08-16T00:24:59.877Z,25.09
2022-08-16T00:27:32.149Z,25.11
2022-08-16T00:30:19.404Z,25.12
2022-08-16T00:32:57.199Z,25.13
2022-08-16T00:35:34.985Z,25.12
2022-08-16T00:38:40.785Z,25.07
2022-08-16T00:41:01.389Z,25.01
2022-08-16T00:43:42.685Z,24.97
2022-08-16T00:46:34.923Z,24.97
2022-08-16T00:49:17.766Z,24.96
2022-08-16T00:51:55.226Z,24.94
2022-08-16T00:54:29.976Z,24.90
2022-08-16T00:57:07.172Z,24.91
2022-08-16T00:59:58.657Z,24.90
2022-08-16T01:02:33.386Z,24.89
2022-08-16T01:05:10.877Z,24.89
2022-08-16T01:07:52.129Z,24.88
2022-08-16T01:10:32.096Z,24.91
2022-08-16T01:13:05.591Z,24.94
2022-08-16T01:15:43.051Z,24.98
2022-08-16T01:18:40.229Z,25.01
2022-08-16T01:21:39.731Z,25.04
2022-08-16T01:24:44.434Z,25.02
2022-08-16T01:27:22.372Z,24.99
2022-08-16T01:30:20.149Z,24.97
2022-08-16T01:33:14.216Z,24.92
2022-08-16T01:35:56.207Z,24.88
2022-08-16T01:38:33.246Z,24.83
2022-08-16T01:41:06.094Z,24.81
2022-08-16T01:43:42.480Z,24.79
2022-08-16T01:46:40.836Z,24.78
2022-08-16T01:49:43.510Z,24.76
2022-08-16T01:52:27.762Z,24.75
2022-08-16T01:55:21.909Z,24.74
2022-08-16T01:57:56.426Z,24.73
2022-08-16T02:00:29.876Z,24.68
2022-08-16T02:03:04.248Z,24.63
2022-08-16T02:05:36.884Z,24.60
2022-08-16T02:08:09.147Z,24.61
2022-08-16T02:11:04.965Z,24.60
2022-08-16T02:13:41.838Z,24.62
2022-08-16T02:16:18.501Z,24.63
2022-08-16T02:18:51.960Z,24.58
2022-08-16T02:21:31.739Z,24.55
2022-08-16T02:24:32.211Z,24.50
2022-08-16T02:26:57.659Z,24.43
2022-08-16T02:29:32.064Z,24.43
2022-08-16T02:32:49.933Z,24.43
2022-08-16T02:34:57.608Z,24.42
2022-08-16T02:37:51.646Z,24.41
2022-08-16T02:40:24.425Z,24.43
2022-08-16T02:42:57.683Z,24.44
2022-08-16T02:45:29.672Z,24.48
2022-08-16T02:48:28.514Z,24.52
2022-08-16T02:51:06.756Z,24.55
2022-08-16T02:53:46.540Z,24.59
2022-08-16T02:56:18.823Z,24.63
2022-08-16T02:58:52.507Z,24.63
2022-08-16T03:01:33.877Z,24.57
2022-08-16T03:04:41.057Z,24.46
2022-08-16T03:07:14.338Z,24.36
2022-08-16T03:09:48.526Z,24.31
2022-08-16T03:12:30.330Z,24.24
2022-08-16T03:15:10.785Z,24.14
2022-08-16T03:17:53.129Z,24.06
2022-08-16T03:20:32.327Z,23.99
2022-08-16T03:23:06.900Z,23.91
2022-08-16T03:25:43.216Z,23.84
2022-08-16T03:28:17.869Z,23.81
2022-08-16T03:30:51.801Z,23.80
2022-08-16T03:33:29.965Z,23.80
2022-08-16T03:36:29.742Z,23.80
2022-08-16T03:39:01.800Z,23.76
2022-08-16T03:41:44.502Z,23.76
2022-08-16T03:44:43.311Z,23.77
2022-08-16T03:47:19.035Z,23.82
2022-08-16T03:49:52.455Z,23.87
2022-08-16T03:52:31.485Z,23.89
2022-08-16T03:55:05.910Z,23.92
2022-08-16T03:57:42.647Z,23.91
2022-08-16T04:00:40.894Z,23.94
2022-08-16T04:03:18.838Z,23.94
2022-08-16T04:05:51.266Z,23.97
2022-08-16T04:08:27.199Z,24.01
2022-08-16T04:11:03.998Z,24.06
2022-08-16T04:13:58.728Z,24.09
2022-08-16T04:16:32.481Z,24.12
2022-08-16T04:19:26.097Z,24.13
2022-08-16T04:22:08.791Z,24.09
2022-08-16T04:24:55.039Z,24.08
2022-08-16T04:27:31.597Z,24.07
2022-08-16T04:30:11.074Z,24.05
2022-08-16T04:32:49.204Z,24.01
2022-08-16T04:35:23.491Z,23.98
2022-08-16T04:37:58.217Z,23.94
2022-08-16T04:40:37.090Z,23.91
2022-08-16T04:43:10.167Z,23.86
2022-08-16T04:45:43.103Z,23.82
2022-08-16T04:48:21.810Z,23.80
2022-08-16T04:51:07.867Z,23.77
2022-08-16T04:53:55.078Z,23.79
2022-08-16T04:56:28.006Z,23.80
2022-08-16T04:59:00.706Z,23.79
2022-08-16T05:01:56.070Z,23.77
2022-08-16T05:04:26.300Z,23.72
2022-08-16T05:07:02.159Z,23.72
2022-08-16T05:09:59.815Z,23.75
2022-08-16T05:12:33.455Z,23.78
2022-08-16T05:15:06.353Z,23.79
2022-08-16T05:17:42.621Z,23.76
2022-08-16T05:20:35.705Z,23.72
2022-08-16T05:23:11.969Z,23.72
2022-08-16T05:25:47.879Z,23.69
2022-08-16T05:28:21.695Z,23.66
2022-08-16T05:31:03.023Z,23.63
2022-08-16T05:33:38.986Z,23.65
2022-08-16T05:36:14.741Z,23.63
2022-08-16T05:38:55.315Z,23.59
2022-08-16T05:41:30.782Z,23.61
2022-08-16T05:44:22.466Z,23.56
2022-08-16T05:47:02.811Z,23.52
2022-08-16T05:49:38.273Z,23.50
2022-08-16T05:52:13.795Z,23.49
2022-08-16T05:55:01.146Z,23.54
2022-08-16T05:57:34.713Z,23.56
2022-08-16T06:00:10.958Z,23.64
2022-08-16T06:02:45.685Z,23.74
2022-08-16T06:05:41.426Z,23.87
2022-08-16T06:08:32.059Z,23.99
2022-08-16T06:11:10.247Z,24.12
2022-08-16T06:13:45.739Z,24.19
2022-08-16T06:16:23.252Z,24.22
2022-08-16T06:18:59.475Z,24.20
2022-08-16T06:21:38.507Z,24.15
2022-08-16T06:24:52.891Z,24.05
2022-08-16T06:27:03.669Z,24.01
2022-08-16T06:29:38.120Z,23.99
2022-08-16T06:32:11.751Z,23.98
2022-08-16T06:35:02.343Z,23.98
2022-08-16T06:37:37.816Z,23.98
2022-08-16T06:40:15.989Z,24.00
2022-08-16T06:42:57.301Z,24.04
2022-08-16T06:45:50.843Z,24.09
2022-08-16T06:48:33.211Z,24.12
2022-08-16T06:51:08.647Z,24.24
2022-08-16T06:53:41.929Z,24.40
2022-08-16T06:56:23.295Z,24.59
2022-08-16T06:59:11.240Z,24.75
2022-08-16T07:01:54.795Z,24.84
2022-08-16T07:04:33.401Z,24.94
2022-08-16T07:07:23.103Z,25.00
2022-08-16T07:09:55.453Z,25.07
2022-08-16T07:12:36.680Z,25.13
2022-08-16T07:15:19.831Z,25.25
2022-08-16T07:17:57.432Z,25.26
2022-08-16T07:20:37.574Z,25.26
2022-08-16T07:23:37.046Z,25.26
2022-08-16T07:26:25.471Z,25.30
2022-08-16T07:29:00.752Z,25.41
2022-08-16T07:31:38.142Z,25.58
2022-08-16T07:34:13.061Z,25.76
2022-08-16T07:36:45.682Z,25.88
2022-08-16T07:39:33.671Z,26.04
2022-08-16T07:42:07.098Z,26.12
2022-08-16T07:44:50.712Z,26.18
2022-08-16T07:47:24.684Z,26.22
2022-08-16T07:50:07.360Z,26.34
2022-08-16T07:52:41.326Z,26.58
2022-08-16T07:55:15.526Z,26.83
2022-08-16T07:58:00.691Z,26.90
2022-08-16T08:00:37.987Z,26.84
2022-08-16T08:03:13.631Z,26.73
2022-08-16T08:05:47.904Z,26.60
2022-08-16T08:08:51.178Z,26.47
2022-08-16T08:11:13.202Z,26.38
2022-08-16T08:13:54.167Z,26.39
2022-08-16T08:16:30.377Z,26.35
2022-08-16T08:19:04.036Z,26.38
2022-08-16T08:21:59.426Z,26.49
2022-08-16T08:24:44.100Z,26.53
2022-08-16T08:27:22.430Z,26.49
2022-08-16T08:30:49.071Z,26.52
2022-08-16T08:32:59.806Z,26.62
2022-08-16T08:35:36.665Z,26.68
2022-08-16T08:38:10.316Z,26.65
2022-08-16T08:40:50.620Z,26.68
2022-08-16T08:43:22.953Z,26.74
2022-08-16T08:46:01.115Z,26.85
2022-08-16T08:48:36.936Z,26.94
2022-08-16T08:51:18.777Z,27.01
2022-08-16T08:53:59.064Z,27.14
2022-08-16T08:56:34.775Z,27.20
2022-08-16T08:59:34.024Z,27.23
2022-08-16T09:02:16.726Z,27.22
2022-08-16T09:04:55.880Z,27.23
2022-08-16T09:07:30.191Z,27.26
2022-08-16T09:10:22.703Z,27.35
2022-08-16T09:13:01.977Z,27.41
2022-08-16T09:15:44.400Z,27.46
2022-08-16T09:18:25.094Z,27.47
2022-08-16T09:21:01.797Z,27.44
2022-08-16T09:23:36.459Z,27.49
2022-08-16T09:26:44.192Z,27.52
2022-08-16T09:29:15.187Z,27.54
2022-08-16T09:31:53.359Z,27.59
2022-08-16T09:34:26.143Z,27.64
2022-08-16T09:36:58.174Z,27.73
2022-08-16T09:39:42.089Z,27.79
2022-08-16T09:42:15.634Z,27.81
2022-08-16T09:45:10.569Z,27.82
2022-08-16T09:47:57.724Z,27.85
2022-08-16T09:50:36.991Z,27.86
2022-08-16T09:53:16.613Z,27.90
2022-08-16T09:55:52.325Z,27.92
2022-08-16T09:58:41.912Z,27.95
2022-08-16T10:01:21.069Z,27.95
2022-08-16T10:04:02.084Z,27.98
2022-08-16T10:06:35.518Z,28.05
2022-08-16T10:09:10.555Z,28.09
2022-08-16T10:12:11.104Z,28.15
2022-08-16T10:14:46.027Z,28.24
2022-08-16T10:17:18.741Z,28.26
2022-08-16T10:19:51.962Z,28.29
2022-08-16T10:22:23.932Z,28.33
2022-08-16T10:25:00.011Z,28.36
2022-08-16T10:27:46.938Z,28.37
2022-08-16T10:30:25.615Z,28.38
2022-08-16T10:32:58.597Z,28.39
2022-08-16T10:35:32.851Z,28.43
2022-08-16T10:38:06.735Z,28.54
2022-08-16T10:40:45.582Z,28.65
2022-08-16T10:43:18.641Z,28.74
2022-08-16T10:45:59.989Z,28.87
2022-08-16T10:48:32.787Z,29.00
2022-08-16T10:51:05.457Z,29.02
2022-08-16T10:53:40.898Z,29.00
2022-08-16T10:56:49.479Z,29.00
2022-08-16T11:05:08.569Z,29.06
2022-08-16T11:07:52.186Z,29.04
2022-08-16T11:19:13.149Z,28.91
2022-08-16T11:24:43.141Z,29.12
2022-08-16T11:27:23.579Z,29.28
2022-08-16T11:29:56.794Z,29.34
2022-08-16T11:32:32.087Z,29.35
2022-08-16T11:35:13.419Z,29.34
2022-08-16T11:38:06.026Z,29.26
2022-08-16T11:40:58.994Z,29.21
2022-08-16T11:43:34.060Z,29.13
2022-08-16T11:46:44.563Z,29.08
2022-08-16T11:49:03.524Z,29.02
2022-08-16T11:51:35.562Z,28.99
2022-08-16T11:54:09.020Z,28.99
2022-08-16T11:56:57.443Z,29.04
2022-08-16T11:59:30.245Z,29.09
2022-08-16T12:02:32.214Z,29.12
2022-08-16T12:04:58.811Z,29.14
2022-08-16T12:07:33.350Z,29.14
2022-08-16T12:10:10.893Z,29.06
2022-08-16T12:12:43.633Z,28.95
2022-08-16T12:15:20.259Z,28.84
2022-08-16T12:17:55.212Z,28.77
2022-08-16T12:20:30.276Z,28.77
2022-08-16T12:23:06.809Z,28.85
2022-08-16T12:25:39.618Z,28.85
2022-08-16T12:28:12.181Z,28.96
2022-08-16T12:30:45.800Z,29.43
2022-08-16T12:33:25.499Z,30.25
2022-08-16T12:35:58.529Z,30.59
2022-08-16T12:38:40.913Z,30.64
2022-08-16T12:41:24.505Z,30.65
2022-08-16T12:44:01.238Z,30.72
2022-08-16T12:46:34.189Z,30.77
2022-08-16T12:49:06.430Z,31.07
2022-08-16T12:51:59.260Z,31.90
2022-08-16T12:54:33.785Z,33.01
2022-08-16T12:57:14.226Z,33.98
2022-08-16T12:59:49.296Z,34.93
2022-08-16T13:02:33.806Z,35.55
2022-08-16T13:05:08.997Z,36.27
2022-08-16T13:07:51.189Z,36.52
2022-08-16T13:10:37.992Z,36.26
2022-08-16T13:13:12.165Z,35.70
2022-08-16T13:15:51.614Z,34.87
2022-08-16T13:18:32.314Z,34.17
2022-08-16T13:21:07.411Z,33.77
2022-08-16T13:23:43.332Z,33.64
2022-08-16T13:26:17.307Z,33.53
2022-08-16T13:28:50.030Z,33.54
2022-08-16T13:31:25.081Z,33.76
2022-08-16T13:33:58.596Z,33.87
2022-08-16T13:36:48.664Z,34.37
2022-08-16T13:39:24.422Z,34.43
2022-08-16T13:41:56.452Z,34.14
2022-08-16T13:44:39.223Z,33.93
2022-08-16T13:47:21.060Z,33.86
2022-08-16T13:49:53.112Z,34.00
2022-08-16T13:52:26.804Z,34.24
2022-08-16T13:55:06.735Z,34.38
2022-08-16T13:58:34.289Z,34.80
2022-08-16T14:00:41.478Z,35.57
2022-08-16T14:03:14.747Z,36.30
2022-08-16T14:05:51.713Z,36.89
2022-08-16T14:08:27.276Z,37.47
2022-08-16T14:10:59.529Z,38.11
2022-08-16T14:13:34.228Z,38.63
2022-08-16T14:16:12.255Z,39.04
2022-08-16T14:18:59.160Z,39.30
2022-08-16T14:21:35.478Z,39.36
2022-08-16T14:24:16.806Z,39.38
2022-08-16T14:26:59.608Z,39.23
2022-08-16T14:29:38.291Z,39.00
2022-08-16T14:32:26.968Z,38.62
2022-08-16T14:35:07.236Z,38.11
2022-08-16T14:37:42.990Z,38.00
2022-08-16T14:40:17.323Z,38.17
2022-08-16T14:42:50.609Z,38.41
2022-08-16T14:45:27.374Z,38.74
2022-08-16T14:47:59.937Z,38.78
2022-08-16T14:50:33.224Z,38.45
2022-08-16T14:53:08.630Z,37.80
2022-08-16T14:55:41.553Z,37.22
2022-08-16T14:58:19.141Z,36.70
2022-08-16T15:00:52.016Z,36.26
2022-08-16T15:03:25.493Z,35.73
2022-08-16T15:05:58.440Z,35.32
2022-08-16T15:08:36.591Z,34.98
2022-08-16T15:11:09.446Z,34.72
2022-08-16T15:13:41.617Z,34.58
2022-08-16T15:16:13.681Z,34.32
2022-08-16T15:18:46.596Z,34.03
2022-08-16T15:21:18.849Z,33.72
2022-08-16T15:23:50.723Z,33.48
2022-08-16T15:26:34.537Z,33.35
2022-08-16T15:29:17.588Z,33.17
2022-08-16T15:31:49.639Z,33.07
2022-08-16T15:34:33.144Z,32.98
2022-08-16T15:37:05.300Z,32.93
2022-08-16T15:39:39.842Z,32.83
2022-08-16T15:42:27.520Z,32.76
2022-08-16T15:45:11.397Z,32.67
2022-08-16T15:47:52.374Z,32.57
2022-08-16T15:50:28.074Z,32.44
2022-08-16T15:53:12.398Z,32.40
2022-08-16T15:55:45.982Z,32.36
2022-08-16T15:58:35.287Z,32.30
2022-08-16T16:01:10.650Z,32.27
2022-08-16T16:03:42.733Z,32.25
2022-08-16T16:06:20.041Z,32.19
2022-08-16T16:09:00.069Z,32.10
2022-08-16T16:11:32.005Z,31.97
2022-08-16T16:14:06.305Z,31.86
2022-08-16T16:16:39.959Z,31.78
2022-08-16T16:19:18.397Z,31.70
2022-08-16T16:22:03.298Z,31.65
2022-08-16T16:24:35.975Z,31.64
2022-08-16T16:27:08.166Z,31.61
2022-08-16T16:29:40.567Z,31.56
2022-08-16T16:32:12.603Z,31.53
2022-08-16T16:34:47.527Z,31.53
2022-08-16T16:37:19.490Z,31.56
2022-08-16T16:39:51.899Z,31.60
2022-08-16T16:42:29.292Z,31.65
2022-08-16T16:45:04.785Z,31.68
2022-08-16T16:47:41.711Z,31.70
2022-08-16T16:50:16.152Z,31.71
2022-08-16T16:52:56.151Z,31.60
2022-08-16T16:55:28.455Z,31.54
2022-08-16T16:58:28.906Z,31.44
2022-08-16T17:01:08.383Z,31.30
2022-08-16T17:03:40.782Z,31.17
2022-08-16T17:06:12.942Z,31.10
2022-08-16T17:08:46.317Z,31.05
2022-08-16T17:11:19.730Z,31.03
2022-08-16T17:13:53.700Z,31.03
2022-08-16T17:16:32.921Z,31.01
2022-08-16T17:19:16.263Z,31.00
2022-08-16T17:21:50.609Z,30.94
2022-08-16T17:24:31.256Z,30.88
2022-08-16T17:27:11.480Z,30.77
2022-08-16T17:29:51.385Z,30.59
2022-08-16T17:32:34.020Z,30.43
2022-08-16T17:35:24.198Z,30.26
2022-08-16T17:38:09.368Z,30.18
2022-08-16T17:40:58.259Z,30.07
2022-08-16T17:43:36.901Z,29.97
2022-08-16T17:46:50.734Z,29.86
2022-08-16T17:49:09.225Z,29.76
2022-08-16T17:51:41.419Z,29.68
2022-08-16T17:54:30.253Z,29.60
2022-08-16T17:57:03.065Z,29.50
2022-08-16T17:59:36.962Z,29.43
2022-08-16T18:02:42.394Z,29.36
2022-08-16T18:05:05.350Z,29.33
2022-08-16T18:07:37.564Z,29.29
2022-08-16T18:10:11.213Z,29.26
2022-08-16T18:12:54.273Z,29.24
2022-08-16T18:15:28.215Z,29.22
2022-08-16T18:18:00.682Z,29.20
2022-08-16T18:20:51.772Z,29.19
2022-08-16T18:23:25.885Z,29.18
2022-08-16T18:25:59.618Z,29.17
2022-08-16T18:28:32.224Z,29.15
2022-08-16T18:31:08.276Z,29.14
2022-08-16T18:33:43.845Z,29.11
2022-08-16T18:36:20.972Z,29.05
2022-08-16T18:38:53.945Z,29.00
2022-08-16T18:41:27.568Z,28.95
2022-08-16T18:44:25.242Z,28.92
2022-08-16T18:46:51.502Z,28.87
2022-08-16T18:49:23.651Z,28.85
2022-08-16T18:51:57.558Z,28.84
2022-08-16T18:54:31.173Z,28.86
2022-08-16T18:57:07.383Z,28.85
2022-08-16T18:59:40.351Z,28.83
2022-08-16T19:02:56.082Z,28.81
2022-08-16T19:05:04.501Z,28.78
2022-08-16T19:07:36.551Z,28.78
2022-08-16T19:10:08.990Z,28.77
2022-08-16T19:12:42.239Z,28.73
2022-08-16T19:15:18.836Z,28.72
2022-08-16T19:17:50.878Z,28.71
2022-08-16T19:20:24.366Z,28.65
2022-08-16T19:23:05.520Z,28.62
2022-08-16T19:25:48.715Z,28.58
2022-08-16T19:28:49.226Z,28.54
2022-08-16T19:31:37.774Z,28.50
2022-08-16T19:34:11.268Z,28.48
2022-08-16T19:36:43.995Z,28.47
2022-08-16T19:39:16.791Z,28.47
2022-08-16T19:41:53.027Z,28.48
2022-08-16T19:44:27.905Z,28.50
2022-08-16T19:46:59.963Z,28.50
2022-08-16T19:49:32.047Z,28.49
2022-08-16T19:52:22.145Z,28.50
2022-08-16T19:54:57.981Z,28.48
2022-08-16T19:57:30.492Z,28.48
2022-08-16T20:00:02.919Z,28.47
2022-08-16T20:02:47.333Z,28.46
2022-08-16T20:05:24.805Z,28.46
2022-08-16T20:08:02.323Z,28.47
2022-08-16T20:10:36.121Z,28.47
2022-08-16T20:13:15.355Z,28.47
2022-08-16T20:15:48.430Z,28.48
2022-08-16T20:18:25.114Z,28.47
2022-08-16T20:20:57.764Z,28.48
2022-08-16T20:23:29.701Z,28.48
2022-08-16T20:26:01.639Z,28.46
2022-08-16T20:28:51.792Z,28.46
2022-08-16T20:31:25.760Z,28.42
2022-08-16T20:33:57.802Z,28.40
2022-08-16T20:36:29.951Z,28.36
2022-08-16T20:39:04.742Z,28.34
2022-08-16T20:41:36.652Z,28.31
2022-08-16T20:44:10.239Z,28.28
2022-08-16T20:46:42.583Z,28.25
2022-08-16T20:49:14.572Z,28.21
2022-08-16T20:51:50.609Z,28.18
2022-08-16T20:54:23.844Z,28.14
2022-08-16T20:56:55.836Z,28.09
2022-08-16T20:59:28.133Z,28.06
2022-08-16T21:02:00.105Z,28.02
2022-08-16T21:04:32.003Z,27.99
2022-08-16T21:07:04.537Z,27.94
2022-08-16T21:09:37.091Z,27.90
2022-08-16T21:12:11.448Z,27.87
2022-08-16T21:14:45.720Z,27.83
2022-08-16T21:17:17.708Z,27.80
2022-08-16T21:19:49.611Z,27.76
2022-08-16T21:22:22.845Z,27.73
2022-08-16T21:24:56.037Z,27.70
2022-08-16T21:27:31.268Z,27.66
2022-08-16T21:30:05.921Z,27.63
2022-08-16T21:32:41.233Z,27.58
2022-08-16T21:35:15.604Z,27.54
2022-08-16T21:38:09.712Z,27.50
2022-08-16T21:40:40.586Z,27.45
2022-08-16T21:43:19.468Z,27.40
2022-08-16T21:45:55.283Z,27.36
2022-08-16T21:48:34.150Z,27.32
2022-08-16T21:51:10.755Z,27.28
2022-08-16T21:53:43.376Z,27.24
2022-08-16T21:56:17.247Z,27.21
2022-08-16T21:58:52.829Z,27.18
2022-08-16T22:01:25.339Z,27.13
2022-08-16T22:04:01.729Z,27.12
2022-08-16T22:06:49.339Z,27.08
2022-08-16T22:09:21.417Z,27.05
2022-08-16T22:11:53.610Z,27.03
2022-08-16T22:14:25.434Z,27.00
2022-08-16T22:16:57.349Z,26.96
2022-08-16T22:19:29.327Z,26.93
2022-08-16T22:22:01.625Z,26.89
2022-08-16T22:24:33.570Z,26.86
2022-08-16T22:27:05.656Z,26.83
2022-08-16T22:29:39.506Z,26.80
2022-08-16T22:32:14.491Z,26.79
2022-08-16T22:34:46.360Z,26.77
2022-08-16T22:37:18.216Z,26.74
2022-08-16T22:39:50.124Z,26.71
2022-08-16T22:42:23.100Z,26.70
2022-08-16T22:44:55.380Z,26.67
2022-08-16T22:47:27.302Z,26.63
2022-08-16T22:49:59.309Z,26.60
2022-08-16T22:52:46.418Z,26.58
2022-08-16T22:55:25.937Z,26.56
2022-08-16T22:57:58.484Z,26.53
2022-08-16T23:00:33.255Z,26.50
2022-08-16T23:03:08.550Z,26.47
2022-08-16T23:05:52.443Z,26.45
2022-08-16T23:08:38.338Z,26.42
2022-08-16T23:11:21.027Z,26.40
2022-08-16T23:13:54.991Z,26.36
2022-08-16T23:16:30.843Z,26.34
2022-08-16T23:19:08.803Z,26.32
2022-08-16T23:21:44.265Z,26.30
2022-08-16T23:24:19.430Z,26.26
2022-08-16T23:26:51.522Z,26.25
2022-08-16T23:29:26.339Z,26.23
2022-08-16T23:32:08.816Z,26.22
2022-08-16T23:34:40.865Z,26.20
2022-08-16T23:37:12.817Z,26.18
2022-08-16T23:39:44.880Z,26.15
2022-08-16T23:42:53.109Z,26.14
2022-08-16T23:45:09.371Z,26.11
2022-08-16T23:47:41.292Z,26.10
2022-08-16T23:50:14.285Z,26.07
2022-08-16T23:52:57.202Z,26.05
2022-08-16T23:55:30.839Z,26.02
2022-08-16T23:58:03.707Z,25.98
